x

Western Caribbean - 195 Nm Wsw Of Negril Jamiaca (42057) Wave Buoy

2:50 - Sun 28th Dec 2014 All times are UTC.

  • Sig Wave height 6.2ft
  • Swell Direction
  • Peak Period 8s
  • Average Period 6s
  • Wind
    20mph, 22mph gusts
  • Sea Temp 83°f
  • Aire Temp 82°f
  • Sea Pressure 1016.9mb

More Historic Weather Station data

Upgrade to MSW Pro to gain access to the past 30 days of data for over 8000 Wavebouys and Weather Stations around the globe.

Join Pro

Comparision Forecast

View Surf forecast
   
dom 12/28 2:50 6ft 8s 6s 20 22 mph 1016.9mb 83f 82f
1:50 6ft 10s 6s 20 25 mph 1016.4mb 83f 82f
12:50 6.5ft 9s 6s 20 22 mph 1015.7mb 83f 82f
11:50 6ft 7s 5s 20 25 mph 1014.9mb 83f 82f
10:50 6ft 7s 6s 18 22 mph 1014.3mb 83f 81f
9:50 6.5ft 7s 6s 18 20 mph 1014.2mb 83f 82f
8:50 6ft 7s 6s 18 22 mph 1014.1mb 83f 82f
7:50 6ft 8s 5s 20 22 mph 1014.3mb 83f 82f
6:50 6ft 8s 5s 22 25 mph 1014.4mb 83f 82f
5:50 6ft 8s 6s 20 22 mph 1015.4mb 83f 82f
4:50 6.5ft 8s 6s 20 22 mph 1015.7mb 83f 82f
3:50 6ft 7s 6s 18 20 mph 1016.2mb 83f 82f
2:50 6ft 8s 6s 18 20 mph 1016.5mb 83f 82f
1:50 6ft 6s 6s 20 22 mph 1016.1mb 83f 82f
12:50 7ft 9s 6s 20 22 mph 1015.7mb 83f 82f
sáb 12/27 11:50 7ft 8s 6s 20 22 mph 1015mb 83f 82f
10:50 6.5ft 8s 6s 20 22 mph 1014.7mb 83f 82f
9:50 6.5ft 7s 6s 20 25 mph 1014.3mb 83f 82f
8:50 6.5ft 8s 6s 18 22 mph 1014.2mb 83f 82f
7:50 7ft 9s 6s 16 20 mph 1014.3mb 83f 82f
6:50 6.5ft 7s 6s 18 20 mph 1014.7mb 83f 82f
5:50 7ft 7s 6s 20 25 mph 1015.5mb 83f 82f
4:50 6.5ft 8s 5s 20 25 mph 1016.3mb 83f 82f
3:50 7ft 6s 6s 20 22 mph 1017mb 83f 82f
2:50 6.5ft 7s 5s 20 25 mph 1016.9mb 83f 82f
1:50 6ft 9s 6s 18 25 mph 1016.2mb 83f 82f
12:50 5.5ft 9s 5s 20 27 mph 1015.5mb 83f 82f
11:50 6ft 7s 5s 20 25 mph 1014.8mb 83f 82f
10:50 6ft 6s 6s 20 22 mph 1014.3mb 83f 82f
9:50 6ft 10s 6s 18 20 mph 1014mb 83f 82f
8:50 6ft 8s 5s 18 22 mph 1013.7mb 83f 81f
7:50 6ft 6s 5s 18 22 mph 1014.1mb 83f 82f
6:50 6ft 9s 5s 20 22 mph 1014.5mb 83f 82f
5:50 6ft 9s 6s 20 22 mph 1014.9mb 83f 82f
4:50 5ft 8s 5s 20 25 mph 1015.3mb 83f 82f
3:50 5ft 8s 5s 20 22 mph 1015.8mb 83f 82f
2:50 5ft 8s 5s 18 20 mph 1015.8mb 83f 81f
1:50 5ft 9s 6s 18 22 mph 1015.7mb 83f 82f
12:50 5.5ft 10s 5s 18 20 mph 1015.4mb 83f 82f
vie 12/26 11:50 5.5ft 9s 6s 20 22 mph 1014.9mb 83f 82f
10:50 6ft 10s 6s 18 22 mph 1014.5mb 83f 82f
9:50 6ft 9s 6s 18 20 mph 1014mb 83f 82f
8:50 6ft 11s 6s 18 20 mph 1013.6mb 83f 82f
7:50 7ft 8s 6s 16 18 mph 1013.8mb 83f 82f
6:50 7.5ft 11s 6s 16 18 mph 1014.2mb 83f 82f
5:50 7ft 10s 6s 18 20 mph 1014.9mb 83f 82f
4:50 8ft 9s 6s 18 22 mph 1015.9mb 83f 83f
3:50 8ft 10s 6s 18 22 mph 1016.7mb 83f 82f
2:50 8ft 9s 6s 20 25 mph 1016.7mb 83f 82f
1:50 6.5ft 10s 6s 25 29 mph 1016.2mb 83f 82f
12:50 6ft 11s 6s 25 29 mph 1015.4mb 83f 82f
11:50 6ft 11s 7s 20 25 mph 1015.2mb 83f 78f
10:50 5.5ft 11s 6s 16 18 mph 1014.7mb 83f 81f
9:50 5ft 11s 6s 16 20 mph 1014.5mb 83f 81f
8:50 4.5ft 7s 6s 13 18 mph 1014.3mb 83f 81f
7:50 4.5ft 9s 5s 16 18 mph 1014.8mb 83f 81f
6:50 5ft 6s 5s 18 22 mph 1014.9mb 83f 81f
5:50 5ft 8s 5s 18 22 mph 1015.4mb 82f 81f
4:50 5ft 9s 5s 20 22 mph 1015.8mb 82f 82f
3:50 5ft 8s 5s 18 20 mph 1016.4mb 82f 82f
2:50 5.5ft 6s 5s 18 20 mph 1016.4mb 83f 82f
1:50 5ft 6s 5s 18 20 mph 1016mb 83f 82f
12:50 6ft 8s 6s 18 20 mph 1015.6mb 83f 82f
jue 12/25 11:50 5.5ft 7s 6s 18 20 mph 1015mb 83f 83f
10:50 5.5ft 9s 6s 18 20 mph 1014.8mb 83f 83f
9:50 5ft 9s 5s 16 18 mph 1014.4mb 83f 83f
8:50 5ft 9s 5s 16 20 mph 1014.4mb 83f 82f
7:50 5ft 9s 5s 16 20 mph 1014.7mb 83f 83f
6:50 5ft 8s 5s 20 22 mph 1015.2mb 83f 83f
5:50 5ft 8s 5s 20 22 mph 1015.8mb 83f 83f
4:50 5ft 8s 5s 16 20 mph 1016.8mb 83f 82f
3:50 5.5ft 9s 5s 16 20 mph 1017.4mb 83f 83f
2:50 5ft 9s 5s 18 22 mph 1017mb 83f 83f
1:50 6ft 10s 5s 20 25 mph 1016.4mb 83f 82f
12:50 6ft 9s 5s 22 27 mph 1015.7mb 83f 82f
11:50 7ft 10s 6s 20 22 mph 1015.3mb 83f 82f
10:50 7.5ft 9s 6s 18 22 mph 1014.9mb 83f 82f
9:50 7ft 10s 6s 18 22 mph 1014.4mb 83f 82f
8:50 6ft 9s 6s 18 22 mph 1013.9mb 83f 82f
7:50 7ft 10s 6s 18 20 mph 1013.7mb 83f 82f
6:50 6ft 9s 6s 18 20 mph 1013.9mb 83f 82f
5:50 6ft 9s 6s 18 22 mph 1014.1mb 83f 82f
4:50 5.5ft 9s 6s 18 22 mph 1014.4mb 83f 82f
3:50 5.5ft 9s 6s 20 22 mph 1014.6mb 83f 83f
2:50 6ft 10s 6s 18 20 mph 1014.5mb 83f 82f
1:50 5ft 9s 5s 18 20 mph 1014.1mb 83f 82f
12:50 5.5ft 9s 6s 18 22 mph 1013.1mb 83f 82f
mié 12/24 11:50 5ft 9s 6s 18 22 mph 1012.2mb 83f 83f
10:50 5ft 7s 6s 18 22 mph 1011.7mb 83f 82f
9:50 6ft 8s 6s 11 13 mph 1011.5mb 83f 81f
8:50 5.5ft 8s 5s 16 20 mph 1011.2mb 83f 80f
7:50 6ft 9s 6s 16 20 mph 1011.3mb 83f 82f
6:50 5.5ft 7s 6s 18 20 mph 1011.5mb 83f 83f
5:50 6ft 9s 6s 16 18 mph 1012mb 83f 82f
4:50 6ft 8s 6s 18 20 mph 1013mb 83f 83f